AVR weather

Alverca Air Base
Vila Franca de Xira, Lisbon District, Portugal

Public forecast

Using degrees Celsius for public forecast. Weather courtesy of forecast.io.

Current aviation weather report (METAR) for Alverca Air Base

Report is more than 2 hours old.

Retrieved 2019/12/06 17:00 UTC (3 hours ago):

LPAR 061700Z 02008KT CAVOK 17/07 Q1021

Aviation forecast (TAF) for Alverca Air Base

Forecast is more than 12 hours old.

Retrieved 2019/11/26 12:00 UTC (10 days ago):

TAF LPAR 261111Z 2612/2621 22015G25KT 3000 RADZ BR SCT005 BKN007 BECMG 2613/2615 26012KT 9999 NSW SCT012